sensor_id;sensor_type;location;lat;lon;timestamp;pressure;altitude;pressure_sealevel;temperature;humidity
19624;BME280;9959;49.798;9.928;2023-12-20T00:02:02;99610.53;;;4.54;100.00
19624;BME280;9959;49.798;9.928;2023-12-20T00:04:30;99609.19;;;4.50;100.00
19624;BME280;9959;49.798;9.928;2023-12-20T00:06:57;99605.88;;;4.48;100.00
19624;BME280;9959;49.798;9.928;2023-12-20T00:09:26;99607.53;;;4.49;100.00
19624;BME280;9959;49.798;9.928;2023-12-20T00:11:53;99602.84;;;4.51;100.00
19624;BME280;9959;49.798;9.928;2023-12-20T00:14:19;99597.88;;;4.48;100.00
19624;BME280;9959;49.798;9.928;2023-12-20T00:16:46;99598.22;;;4.45;100.00
19624;BME280;9959;49.798;9.928;2023-12-20T00:19:13;99593.38;;;4.48;100.00
19624;BME280;9959;49.798;9.928;2023-12-20T00:21:40;99586.34;;;4.55;100.00
19624;BME280;9959;49.798;9.928;2023-12-20T00:24:07;99586.84;;;4.51;100.00
19624;BME280;9959;49.798;9.928;2023-12-20T00:26:37;99583.53;;;4.49;100.00
19624;BME280;9959;49.798;9.928;2023-12-20T00:29:05;99584.53;;;4.48;100.00
19624;BME280;9959;49.798;9.928;2023-12-20T00:31:32;99582.84;;;4.55;100.00
19624;BME280;9959;49.798;9.928;2023-12-20T00:33:59;99576.84;;;4.53;100.00
19624;BME280;9959;49.798;9.928;2023-12-20T00:36:26;99571.00;;;4.57;100.00
19624;BME280;9959;49.798;9.928;2023-12-20T00:38:55;99570.47;;;4.62;100.00
19624;BME280;9959;49.798;9.928;2023-12-20T00:41:22;99569.47;;;4.63;100.00
19624;BME280;9959;49.798;9.928;2023-12-20T00:43:49;99554.75;;;4.67;100.00
19624;BME280;9959;49.798;9.928;2023-12-20T00:46:15;99563.22;;;4.70;100.00
19624;BME280;9959;49.798;9.928;2023-12-20T00:48:42;99555.13;;;4.64;100.00
19624;BME280;9959;49.798;9.928;2023-12-20T00:51:12;99554.97;;;4.57;100.00
19624;BME280;9959;49.798;9.928;2023-12-20T00:53:39;99548.81;;;4.57;100.00
19624;BME280;9959;49.798;9.928;2023-12-20T00:56:06;99546.47;;;4.62;100.00
19624;BME280;9959;49.798;9.928;2023-12-20T00:58:33;99557.41;;;4.67;100.00
19624;BME280;9959;49.798;9.928;2023-12-20T01:01:03;99556.13;;;4.63;100.00
19624;BME280;9959;49.798;9.928;2023-12-20T01:03:30;99553.06;;;4.66;100.00
19624;BME280;9959;49.798;9.928;2023-12-20T01:05:57;99551.31;;;4.58;100.00
19624;BME280;9959;49.798;9.928;2023-12-20T01:08:24;99547.63;;;4.59;100.00
19624;BME280;9959;49.798;9.928;2023-12-20T01:10:51;99539.66;;;4.51;100.00
19624;BME280;9959;49.798;9.928;2023-12-20T01:13:18;99544.78;;;4.61;100.00
19624;BME280;9959;49.798;9.928;2023-12-20T01:15:45;99529.13;;;4.58;100.00
19624;BME280;9959;49.798;9.928;2023-12-20T01:18:14;99539.81;;;4.58;100.00
19624;BME280;9959;49.798;9.928;2023-12-20T01:20:41;99535.47;;;4.57;100.00
19624;BME280;9959;49.798;9.928;2023-12-20T01:23:08;99539.31;;;4.54;100.00
19624;BME280;9959;49.798;9.928;2023-12-20T01:25:35;99526.16;;;4.53;100.00
19624;BME280;9959;49.798;9.928;2023-12-20T01:28:05;99533.84;;;4.48;100.00
19624;BME280;9959;49.798;9.928;2023-12-20T01:30:32;99523.50;;;4.53;100.00
19624;BME280;9959;49.798;9.928;2023-12-20T01:33:00;99530.19;;;4.49;100.00
19624;BME280;9959;49.798;9.928;2023-12-20T01:35:28;99535.16;;;4.52;100.00
19624;BME280;9959;49.798;9.928;2023-12-20T01:37:54;99533.50;;;4.51;100.00
19624;BME280;9959;49.798;9.928;2023-12-20T01:40:24;99532.00;;;4.48;100.00
19624;BME280;9959;49.798;9.928;2023-12-20T01:43:02;99535.03;;;4.45;100.00
19624;BME280;9959;49.798;9.928;2023-12-20T01:45:34;99523.03;;;4.41;100.00
19624;BME280;9959;49.798;9.928;2023-12-20T01:48:02;99527.25;;;4.35;100.00
19624;BME280;9959;49.798;9.928;2023-12-20T01:50:31;99507.94;;;4.33;100.00
19624;BME280;9959;49.798;9.928;2023-12-20T01:53:01;99515.94;;;4.33;100.00
19624;BME280;9959;49.798;9.928;2023-12-20T01:55:31;99508.28;;;4.30;100.00
19624;BME280;9959;49.798;9.928;2023-12-20T01:57:59;99505.97;;;4.27;100.00
19624;BME280;9959;49.798;9.928;2023-12-20T02:00:30;99521.97;;;4.27;100.00
19624;BME280;9959;49.798;9.928;2023-12-20T02:03:01;99515.31;;;4.23;100.00
19624;BME280;9959;49.798;9.928;2023-12-20T02:05:30;99505.97;;;4.27;100.00
19624;BME280;9959;49.798;9.928;2023-12-20T02:07:58;99518.66;;;4.25;100.00
19624;BME280;9959;49.798;9.928;2023-12-20T02:10:26;99520.31;;;4.26;100.00
19624;BME280;9959;49.798;9.928;2023-12-20T02:12:53;99527.66;;;4.24;100.00
19624;BME280;9959;49.798;9.928;2023-12-20T02:15:21;99522.66;;;4.21;100.00
19624;BME280;9959;49.798;9.928;2023-12-20T02:17:48;99523.97;;;4.25;100.00
19624;BME280;9959;49.798;9.928;2023-12-20T02:20:15;99522.31;;;4.24;100.00
19624;BME280;9959;49.798;9.928;2023-12-20T02:22:42;99520.00;;;4.21;100.00
19624;BME280;9959;49.798;9.928;2023-12-20T02:25:15;99516.66;;;4.19;100.00
19624;BME280;9959;49.798;9.928;2023-12-20T02:27:42;99513.66;;;4.22;100.00
19624;BME280;9959;49.798;9.928;2023-12-20T02:30:10;99520.66;;;4.23;100.00
19624;BME280;9959;49.798;9.928;2023-12-20T02:32:39;99512.00;;;4.21;100.00
19624;BME280;9959;49.798;9.928;2023-12-20T02:35:06;99530.00;;;4.19;100.00
19624;BME280;9959;49.798;9.928;2023-12-20T02:37:33;99526.66;;;4.17;100.00
19624;BME280;9959;49.798;9.928;2023-12-20T02:40:00;99523.34;;;4.15;100.00
19624;BME280;9959;49.798;9.928;2023-12-20T02:42:27;99516.34;;;4.14;100.00
19624;BME280;9959;49.798;9.928;2023-12-20T02:44:54;99518.34;;;4.12;100.00
19624;BME280;9959;49.798;9.928;2023-12-20T02:47:21;99515.69;;;4.12;100.00
19624;BME280;9959;49.798;9.928;2023-12-20T02:49:48;99521.41;;;4.09;100.00
19624;BME280;9959;49.798;9.928;2023-12-20T02:52:16;99523.34;;;4.15;100.00
19624;BME280;9959;49.798;9.928;2023-12-20T02:54:43;99530.91;;;4.03;100.00
19624;BME280;9959;49.798;9.928;2023-12-20T02:57:10;99533.53;;;4.12;100.00
19624;BME280;9959;49.798;9.928;2023-12-20T02:59:37;99529.75;;;4.06;100.00
19624;BME280;9959;49.798;9.928;2023-12-20T03:02:03;99526.06;;;4.07;100.00
19624;BME280;9959;49.798;9.928;2023-12-20T03:04:31;99524.91;;;4.10;100.00
19624;BME280;9959;49.798;9.928;2023-12-20T03:06:58;99528.06;;;4.05;100.00
19624;BME280;9959;49.798;9.928;2023-12-20T03:09:25;99529.06;;;4.04;100.00
19624;BME280;9959;49.798;9.928;2023-12-20T03:11:52;99536.25;;;4.03;100.00
19624;BME280;9959;49.798;9.928;2023-12-20T03:14:18;99527.59;;;4.01;100.00
19624;BME280;9959;49.798;9.928;2023-12-20T03:16:52;99527.09;;;3.98;100.00
19624;BME280;9959;49.798;9.928;2023-12-20T03:19:18;99521.41;;;4.01;100.00
19624;BME280;9959;49.798;9.928;2023-12-20T03:21:46;99516.78;;;3.95;100.00
19624;BME280;9959;49.798;9.928;2023-12-20T03:24:13;99520.78;;;3.91;100.00
19624;BME280;9959;49.798;9.928;2023-12-20T03:26:40;99539.44;;;3.91;100.00
19624;BME280;9959;49.798;9.928;2023-12-20T03:29:06;99526.25;;;3.97;100.00
19624;BME280;9959;49.798;9.928;2023-12-20T03:31:33;99532.56;;;4.04;100.00
19624;BME280;9959;49.798;9.928;2023-12-20T03:34:01;99523.09;;;4.02;100.00
19624;BME280;9959;49.798;9.928;2023-12-20T03:36:28;99523.91;;;4.02;100.00
19624;BME280;9959;49.798;9.928;2023-12-20T03:38:55;99540.41;;;3.98;100.00
19624;BME280;9959;49.798;9.928;2023-12-20T03:41:25;99536.75;;;3.99;100.00
19624;BME280;9959;49.798;9.928;2023-12-20T03:43:51;99531.75;;;3.96;100.00
19624;BME280;9959;49.798;9.928;2023-12-20T03:46:18;99524.75;;;4.03;100.00
19624;BME280;9959;49.798;9.928;2023-12-20T03:48:45;99511.09;;;3.98;100.00
19624;BME280;9959;49.798;9.928;2023-12-20T03:51:12;99508.94;;;4.01;100.00
19624;BME280;9959;49.798;9.928;2023-12-20T03:53:39;99515.78;;;3.96;100.00
19624;BME280;9959;49.798;9.928;2023-12-20T03:56:07;99531.09;;;3.94;100.00
19624;BME280;9959;49.798;9.928;2023-12-20T03:58:36;99530.28;;;3.93;100.00
19624;BME280;9959;49.798;9.928;2023-12-20T04:01:10;99531.09;;;3.94;100.00
19624;BME280;9959;49.798;9.928;2023-12-20T04:03:40;99521.13;;;3.88;100.00
19624;BME280;9959;49.798;9.928;2023-12-20T04:06:07;99528.13;;;3.89;100.00
19624;BME280;9959;49.798;9.928;2023-12-20T04:08:34;99538.09;;;3.95;100.00
19624;BME280;9959;49.798;9.928;2023-12-20T04:11:05;99527.94;;;3.98;100.00
19624;BME280;9959;49.798;9.928;2023-12-20T04:13:35;99534.41;;;4.04;100.00
19624;BME280;9959;49.798;9.928;2023-12-20T04:16:06;99524.94;;;3.93;100.00
19624;BME280;9959;49.798;9.928;2023-12-20T04:18:33;99536.91;;;3.97;100.00
19624;BME280;9959;49.798;9.928;2023-12-20T04:21:06;99535.09;;;3.98;100.00
19624;BME280;9959;49.798;9.928;2023-12-20T04:23:36;99525.91;;;4.00;100.00
19624;BME280;9959;49.798;9.928;2023-12-20T04:26:07;99527.78;;;3.92;100.00
19624;BME280;9959;49.798;9.928;2023-12-20T04:28:36;99524.44;;;3.90;100.00
19624;BME280;9959;49.798;9.928;2023-12-20T04:31:07;99514.94;;;3.95;100.00
19624;BME280;9959;49.798;9.928;2023-12-20T04:33:37;99514.44;;;3.92;100.00
19624;BME280;9959;49.798;9.928;2023-12-20T04:36:04;99507.47;;;3.91;100.00
19624;BME280;9959;49.798;9.928;2023-12-20T04:38:37;99523.09;;;3.94;100.00
19624;BME280;9959;49.798;9.928;2023-12-20T04:41:05;99522.63;;;3.90;100.00
19624;BME280;9959;49.798;9.928;2023-12-20T04:43:32;99532.22;;;4.07;100.00
19624;BME280;9959;49.798;9.928;2023-12-20T04:45:59;99531.75;;;4.04;100.00
19624;BME280;9959;49.798;9.928;2023-12-20T04:48:26;99530.75;;;3.97;100.00
19624;BME280;9959;49.798;9.928;2023-12-20T04:50:53;99527.72;;;4.08;100.00
19624;BME280;9959;49.798;9.928;2023-12-20T04:53:23;99530.75;;;4.05;100.00
19624;BME280;9959;49.798;9.928;2023-12-20T04:55:50;99537.06;;;4.04;100.00
19624;BME280;9959;49.798;9.928;2023-12-20T04:58:17;99546.72;;;4.05;100.00
19624;BME280;9959;49.798;9.928;2023-12-20T05:00:44;99543.09;;;3.98;100.00
19624;BME280;9959;49.798;9.928;2023-12-20T05:03:11;99541.75;;;4.02;100.00
19624;BME280;9959;49.798;9.928;2023-12-20T05:05:41;99551.22;;;4.04;100.00
19624;BME280;9959;49.798;9.928;2023-12-20T05:08:14;99556.41;;;4.06;100.00
19624;BME280;9959;49.798;9.928;2023-12-20T05:10:41;99560.72;;;4.07;100.00
19624;BME280;9959;49.798;9.928;2023-12-20T05:13:08;99564.22;;;4.07;100.00
19624;BME280;9959;49.798;9.928;2023-12-20T05:15:36;99563.03;;;4.10;100.00
19624;BME280;9959;49.798;9.928;2023-12-20T05:18:03;99562.22;;;4.10;100.00
19624;BME280;9959;49.798;9.928;2023-12-20T05:20:30;99570.72;;;4.05;100.00
19624;BME280;9959;49.798;9.928;2023-12-20T05:22:57;99576.06;;;4.05;100.00
19624;BME280;9959;49.798;9.928;2023-12-20T05:25:24;99586.38;;;4.08;100.00
19624;BME280;9959;49.798;9.928;2023-12-20T05:27:51;99588.03;;;4.09;100.00
19624;BME280;9959;49.798;9.928;2023-12-20T05:30:18;99597.34;;;4.13;100.00
19624;BME280;9959;49.798;9.928;2023-12-20T05:32:44;99588.66;;;4.11;100.00
19624;BME280;9959;49.798;9.928;2023-12-20T05:35:12;99601.00;;;4.12;100.00
19624;BME280;9959;49.798;9.928;2023-12-20T05:37:39;99588.34;;;4.14;100.00
19624;BME280;9959;49.798;9.928;2023-12-20T05:40:07;99598.66;;;4.17;100.00
19624;BME280;9959;49.798;9.928;2023-12-20T05:42:40;99597.13;;;4.23;100.00
19624;BME280;9959;49.798;9.928;2023-12-20T05:45:07;99598.81;;;4.24;100.00
19624;BME280;9959;49.798;9.928;2023-12-20T05:47:34;99606.94;;;4.30;100.00
19624;BME280;9959;49.798;9.928;2023-12-20T05:50:04;99610.13;;;4.26;100.00
19624;BME280;9959;49.798;9.928;2023-12-20T05:52:35;99597.31;;;4.21;100.00
19624;BME280;9959;49.798;9.928;2023-12-20T05:55:02;99606.66;;;4.17;100.00
19624;BME280;9959;49.798;9.928;2023-12-20T05:57:29;99604.16;;;4.16;100.00
19624;BME280;9959;49.798;9.928;2023-12-20T05:59:56;99608.97;;;4.20;100.00
19624;BME280;9959;49.798;9.928;2023-12-20T06:02:23;99611.97;;;4.17;100.00
19624;BME280;9959;49.798;9.928;2023-12-20T06:04:50;99613.31;;;4.21;100.00
19624;BME280;9959;49.798;9.928;2023-12-20T06:07:17;99613.59;;;4.34;100.00
19624;BME280;9959;49.798;9.928;2023-12-20T06:09:44;99625.63;;;4.30;100.00
19624;BME280;9959;49.798;9.928;2023-12-20T06:12:11;99626.97;;;4.26;100.00
19624;BME280;9959;49.798;9.928;2023-12-20T06:14:38;99628.28;;;4.30;100.00
19624;BME280;9959;49.798;9.928;2023-12-20T06:17:13;99634.94;;;4.34;100.00
19624;BME280;9959;49.798;9.928;2023-12-20T06:19:40;99627.94;;;4.33;100.00
19624;BME280;9959;49.798;9.928;2023-12-20T06:22:10;99634.13;;;4.34;100.00
19624;BME280;9959;49.798;9.928;2023-12-20T06:24:37;99627.59;;;4.36;100.00
19624;BME280;9959;49.798;9.928;2023-12-20T06:27:04;99634.22;;;4.40;100.00
19624;BME280;9959;49.798;9.928;2023-12-20T06:29:31;99632.94;;;4.36;100.00
19624;BME280;9959;49.798;9.928;2023-12-20T06:31:58;99632.44;;;4.33;100.00
19624;BME280;9959;49.798;9.928;2023-12-20T06:34:28;99634.44;;;4.31;100.00
19624;BME280;9959;49.798;9.928;2023-12-20T06:36:55;99634.94;;;4.34;100.00
19624;BME280;9959;49.798;9.928;2023-12-20T06:39:22;99644.91;;;4.40;100.00
19624;BME280;9959;49.798;9.928;2023-12-20T06:41:49;99649.56;;;4.47;100.00
19624;BME280;9959;49.798;9.928;2023-12-20T06:44:16;99653.88;;;4.48;100.00
19624;BME280;9959;49.798;9.928;2023-12-20T06:46:43;99641.56;;;4.47;100.00
19624;BME280;9959;49.798;9.928;2023-12-20T06:49:13;99652.84;;;4.57;100.00
19624;BME280;9959;49.798;9.928;2023-12-20T06:51:40;99647.22;;;4.52;100.00
19624;BME280;9959;49.798;9.928;2023-12-20T06:54:07;99653.38;;;4.52;100.00
19624;BME280;9959;49.798;9.928;2023-12-20T06:56:34;99653.53;;;4.51;100.00
19624;BME280;9959;49.798;9.928;2023-12-20T06:59:01;99661.22;;;4.54;100.00
19624;BME280;9959;49.798;9.928;2023-12-20T07:01:33;99659.19;;;4.56;100.00
19624;BME280;9959;49.798;9.928;2023-12-20T07:04:00;99661.88;;;4.56;100.00
19624;BME280;9959;49.798;9.928;2023-12-20T07:06:27;99651.19;;;4.56;100.00
19624;BME280;9959;49.798;9.928;2023-12-20T07:08:55;99668.88;;;4.57;100.00
19624;BME280;9959;49.798;9.928;2023-12-20T07:11:21;99670.22;;;4.53;100.00
19624;BME280;9959;49.798;9.928;2023-12-20T07:13:48;99676.38;;;4.53;100.00
19624;BME280;9959;49.798;9.928;2023-12-20T07:16:16;99676.38;;;4.53;100.00
19624;BME280;9959;49.798;9.928;2023-12-20T07:18:43;99682.56;;;4.46;100.00
19624;BME280;9959;49.798;9.928;2023-12-20T07:21:10;99697.22;;;4.50;100.00
19624;BME280;9959;49.798;9.928;2023-12-20T07:23:37;99701.25;;;4.46;100.00
19624;BME280;9959;49.798;9.928;2023-12-20T07:26:07;99695.28;;;4.35;100.00
19624;BME280;9959;49.798;9.928;2023-12-20T07:28:34;99690.31;;;4.24;100.00
19624;BME280;9959;49.798;9.928;2023-12-20T07:31:01;99697.97;;;4.19;100.00
19624;BME280;9959;49.798;9.928;2023-12-20T07:33:29;99697.97;;;4.11;100.00
19624;BME280;9959;49.798;9.928;2023-12-20T07:36:05;99698.50;;;3.98;100.00
19624;BME280;9959;49.798;9.928;2023-12-20T07:38:35;99705.00;;;4.04;100.00
19624;BME280;9959;49.798;9.928;2023-12-20T07:41:03;99709.66;;;3.94;100.00
19624;BME280;9959;49.798;9.928;2023-12-20T07:43:30;99718.50;;;4.02;100.00
19624;BME280;9959;49.798;9.928;2023-12-20T07:45:57;99721.31;;;3.93;100.00
19624;BME280;9959;49.798;9.928;2023-12-20T07:48:24;99714.16;;;4.01;100.00
19624;BME280;9959;49.798;9.928;2023-12-20T07:50:54;99717.34;;;3.97;100.00
19624;BME280;9959;49.798;9.928;2023-12-20T07:53:21;99715.66;;;3.88;100.00
19624;BME280;9959;49.798;9.928;2023-12-20T07:55:48;99719.50;;;3.85;100.00
19624;BME280;9959;49.798;9.928;2023-12-20T07:58:15;99717.66;;;3.86;100.00
19624;BME280;9959;49.798;9.928;2023-12-20T08:00:42;99720.00;;;3.89;100.00
19624;BME280;9959;49.798;9.928;2023-12-20T08:03:09;99720.16;;;3.87;100.00
19624;BME280;9959;49.798;9.928;2023-12-20T08:05:37;99724.66;;;3.87;100.00
19624;BME280;9959;49.798;9.928;2023-12-20T08:08:07;99723.97;;;3.85;100.00
19624;BME280;9959;49.798;9.928;2023-12-20T08:10:34;99718.66;;;3.93;100.00
19624;BME280;9959;49.798;9.928;2023-12-20T08:13:01;99721.84;;;3.80;100.00
19624;BME280;9959;49.798;9.928;2023-12-20T08:15:28;99729.47;;;3.91;100.00
19624;BME280;9959;49.798;9.928;2023-12-20T08:17:55;99717.00;;;3.84;100.00
19624;BME280;9959;49.798;9.928;2023-12-20T08:20:22;99713.31;;;3.85;100.00
19624;BME280;9959;49.798;9.928;2023-12-20T08:23:02;99720.16;;;3.95;100.00
19624;BME280;9959;49.798;9.928;2023-12-20T08:25:29;99723.97;;;3.85;100.00
19624;BME280;9959;49.798;9.928;2023-12-20T08:27:56;99725.66;;;3.86;100.00
19624;BME280;9959;49.798;9.928;2023-12-20T08:30:23;99719.66;;;3.92;100.00
19624;BME280;9959;49.798;9.928;2023-12-20T08:32:50;99730.81;;;3.95;100.00
19624;BME280;9959;49.798;9.928;2023-12-20T08:35:17;99735.31;;;4.03;100.00
19624;BME280;9959;49.798;9.928;2023-12-20T08:37:45;99737.00;;;4.04;100.00
19624;BME280;9959;49.798;9.928;2023-12-20T08:40:12;99744.66;;;4.07;100.00
19624;BME280;9959;49.798;9.928;2023-12-20T08:42:40;99748.28;;;4.22;100.00
19624;BME280;9959;49.798;9.928;2023-12-20T08:45:07;99736.28;;;4.34;100.00
19624;BME280;9959;49.798;9.928;2023-12-20T08:47:35;99750.06;;;4.62;100.00
19624;BME280;9959;49.798;9.928;2023-12-20T08:50:03;99741.47;;;4.83;100.00
19624;BME280;9959;49.798;9.928;2023-12-20T08:52:30;99741.84;;;4.72;100.00
19624;BME280;9959;49.798;9.928;2023-12-20T08:54:57;99739.00;;;4.73;100.00
19624;BME280;9959;49.798;9.928;2023-12-20T08:57:24;99738.84;;;4.75;100.00
19624;BME280;9959;49.798;9.928;2023-12-20T08:59:51;99736.50;;;4.72;100.00
19624;BME280;9959;49.798;9.928;2023-12-20T09:02:18;99738.22;;;4.65;100.00
19624;BME280;9959;49.798;9.928;2023-12-20T09:04:45;99732.22;;;4.55;100.00
19624;BME280;9959;49.798;9.928;2023-12-20T09:07:25;99733.22;;;4.54;100.00
19624;BME280;9959;49.798;9.928;2023-12-20T09:09:53;99739.56;;;4.61;100.00
19624;BME280;9959;49.798;9.928;2023-12-20T09:12:20;99735.50;;;4.73;100.00
19624;BME280;9959;49.798;9.928;2023-12-20T09:14:48;99735.41;;;4.97;100.00
19624;BME280;9959;49.798;9.928;2023-12-20T09:17:16;99731.78;;;5.21;99.59
19624;BME280;9959;49.798;9.928;2023-12-20T09:19:44;99737.44;;;5.49;96.51
19624;BME280;9959;49.798;9.928;2023-12-20T09:22:12;99737.19;;;5.13;97.36
19624;BME280;9959;49.798;9.928;2023-12-20T09:24:39;99735.66;;;5.19;98.52
19624;BME280;9959;49.798;9.928;2023-12-20T09:27:07;99733.56;;;5.60;95.06
19624;BME280;9959;49.798;9.928;2023-12-20T09:29:34;99744.88;;;5.93;92.06
19624;BME280;9959;49.798;9.928;2023-12-20T09:32:01;99753.03;;;6.14;88.93
19624;BME280;9959;49.798;9.928;2023-12-20T09:34:28;99756.56;;;6.29;88.36
19624;BME280;9959;49.798;9.928;2023-12-20T09:36:56;99746.25;;;6.26;86.97
19624;BME280;9959;49.798;9.928;2023-12-20T09:39:23;99752.38;;;6.12;88.65
19624;BME280;9959;49.798;9.928;2023-12-20T09:42:01;99752.94;;;6.07;89.63
19624;BME280;9959;49.798;9.928;2023-12-20T09:44:29;99753.53;;;5.95;89.58
19624;BME280;9959;49.798;9.928;2023-12-20T09:46:57;99759.31;;;5.75;90.89
19624;BME280;9959;49.798;9.928;2023-12-20T09:49:25;99762.91;;;6.14;89.68
19624;BME280;9959;49.798;9.928;2023-12-20T09:51:54;99759.94;;;6.08;89.60
19624;BME280;9959;49.798;9.928;2023-12-20T09:54:22;99748.63;;;6.21;87.95
19624;BME280;9959;49.798;9.928;2023-12-20T09:56:49;99764.47;;;6.08;89.31
19624;BME280;9959;49.798;9.928;2023-12-20T09:59:16;99763.59;;;6.30;86.18
19624;BME280;9959;49.798;9.928;2023-12-20T10:01:43;99746.63;;;6.23;86.40
19624;BME280;9959;49.798;9.928;2023-12-20T10:04:12;99744.91;;;6.45;85.62
19624;BME280;9959;49.798;9.928;2023-12-20T10:06:55;99738.16;;;6.64;84.82
19624;BME280;9959;49.798;9.928;2023-12-20T10:09:23;99724.94;;;7.06;81.67
19624;BME280;9959;49.798;9.928;2023-12-20T10:11:54;99725.13;;;7.05;81.62
19624;BME280;9959;49.798;9.928;2023-12-20T10:14:21;99730.41;;;6.39;84.20
19624;BME280;9959;49.798;9.928;2023-12-20T10:16:50;99734.97;;;6.31;86.60
19624;BME280;9959;49.798;9.928;2023-12-20T10:19:17;99737.22;;;6.27;86.34
19624;BME280;9959;49.798;9.928;2023-12-20T10:21:45;99736.78;;;6.01;88.10
19624;BME280;9959;49.798;9.928;2023-12-20T10:24:17;99731.44;;;6.01;88.59
19624;BME280;9959;49.798;9.928;2023-12-20T10:26:44;99727.78;;;6.31;87.69
19624;BME280;9959;49.798;9.928;2023-12-20T10:29:11;99719.22;;;8.37;79.23
19624;BME280;9959;49.798;9.928;2023-12-20T10:31:39;99728.72;;;7.69;75.38
19624;BME280;9959;49.798;9.928;2023-12-20T10:34:06;99706.38;;;9.08;71.73
19624;BME280;9959;49.798;9.928;2023-12-20T10:36:33;99717.78;;;9.10;67.48
19624;BME280;9959;49.798;9.928;2023-12-20T10:39:01;99703.16;;;6.95;79.70
19624;BME280;9959;49.798;9.928;2023-12-20T10:41:31;99694.16;;;6.52;82.53
19624;BME280;9959;49.798;9.928;2023-12-20T10:44:01;99700.59;;;6.28;83.63
19624;BME280;9959;49.798;9.928;2023-12-20T10:46:30;99709.47;;;6.05;84.98
19624;BME280;9959;49.798;9.928;2023-12-20T10:48:57;99706.91;;;6.12;85.49
19624;BME280;9959;49.798;9.928;2023-12-20T10:51:25;99697.88;;;6.13;85.35
19624;BME280;9959;49.798;9.928;2023-12-20T10:53:55;99699.38;;;6.16;85.08
19624;BME280;9959;49.798;9.928;2023-12-20T10:56:23;99706.19;;;6.18;84.55
19624;BME280;9959;49.798;9.928;2023-12-20T10:58:54;99699.38;;;6.16;83.97
19624;BME280;9959;49.798;9.928;2023-12-20T11:01:21;99696.06;;;6.58;83.28
19624;BME280;9959;49.798;9.928;2023-12-20T11:03:52;99704.91;;;6.14;83.64
19624;BME280;9959;49.798;9.928;2023-12-20T11:06:43;99702.94;;;6.08;84.09
19624;BME280;9959;49.798;9.928;2023-12-20T11:09:21;99695.19;;;5.98;86.12
19624;BME280;9959;49.798;9.928;2023-12-20T11:12:17;99691.13;;;5.79;95.37
19624;BME280;9959;49.798;9.928;2023-12-20T11:14:52;99702.66;;;5.80;98.84
19624;BME280;9959;49.798;9.928;2023-12-20T11:17:20;99709.94;;;5.71;98.41
19624;BME280;9959;49.798;9.928;2023-12-20T11:22:30;99697.56;;;5.70;95.26
19624;BME280;9959;49.798;9.928;2023-12-20T11:25:08;99696.19;;;5.74;93.18
19624;BME280;9959;49.798;9.928;2023-12-20T11:27:42;99681.19;;;5.73;91.93
19624;BME280;9959;49.798;9.928;2023-12-20T11:30:17;99693.44;;;5.83;90.55
19624;BME280;9959;49.798;9.928;2023-12-20T11:32:45;99674.03;;;5.89;91.13
19624;BME280;9959;49.798;9.928;2023-12-20T11:35:17;99673.38;;;5.87;89.72
19624;BME280;9959;49.798;9.928;2023-12-20T11:37:46;99670.69;;;5.87;89.56
19624;BME280;9959;49.798;9.928;2023-12-20T11:40:19;99671.66;;;5.94;89.38
19624;BME280;9959;49.798;9.928;2023-12-20T11:42:49;99669.81;;;5.94;88.32
19624;BME280;9959;49.798;9.928;2023-12-20T11:45:22;99675.66;;;5.98;85.29
19624;BME280;9959;49.798;9.928;2023-12-20T11:47:54;99669.53;;;6.04;86.19
19624;BME280;9959;49.798;9.928;2023-12-20T11:50:22;99657.66;;;6.06;84.87
19624;BME280;9959;49.798;9.928;2023-12-20T11:52:52;99661.91;;;6.01;84.39
19624;BME280;9959;49.798;9.928;2023-12-20T11:55:19;99656.47;;;6.09;85.86
19624;BME280;9959;49.798;9.928;2023-12-20T11:57:47;99664.97;;;6.13;85.23
19624;BME280;9959;49.798;9.928;2023-12-20T12:00:14;99667.81;;;6.11;82.50
19624;BME280;9959;49.798;9.928;2023-12-20T12:02:42;99669.09;;;6.00;82.51
19624;BME280;9959;49.798;9.928;2023-12-20T12:05:11;99665.22;;;6.03;82.34
19624;BME280;9959;49.798;9.928;2023-12-20T12:07:39;99666.44;;;6.00;81.88
19624;BME280;9959;49.798;9.928;2023-12-20T12:10:06;99648.81;;;6.06;82.23
19624;BME280;9959;49.798;9.928;2023-12-20T12:12:34;99645.59;;;6.10;80.93
19624;BME280;9959;49.798;9.928;2023-12-20T12:15:02;99629.91;;;6.07;79.88
19624;BME280;9959;49.798;9.928;2023-12-20T12:17:29;99634.44;;;6.22;79.13
19624;BME280;9959;49.798;9.928;2023-12-20T12:20:05;99626.53;;;6.28;77.27
19624;BME280;9959;49.798;9.928;2023-12-20T12:22:32;99635.16;;;6.30;76.83
19624;BME280;9959;49.798;9.928;2023-12-20T12:25:09;99630.75;;;6.37;77.56
19624;BME280;9959;49.798;9.928;2023-12-20T12:27:41;99630.75;;;6.37;77.95
19624;BME280;9959;49.798;9.928;2023-12-20T12:30:09;99646.78;;;6.37;77.26
19624;BME280;9959;49.798;9.928;2023-12-20T12:32:36;99637.38;;;6.41;77.07
19624;BME280;9959;49.798;9.928;2023-12-20T12:35:04;99641.63;;;6.36;75.98
19624;BME280;9959;49.798;9.928;2023-12-20T12:37:37;99676.50;;;6.42;76.51
19624;BME280;9959;49.798;9.928;2023-12-20T12:40:09;99657.41;;;6.31;76.38
19624;BME280;9959;49.798;9.928;2023-12-20T12:42:37;99646.78;;;6.37;76.66
19624;BME280;9959;49.798;9.928;2023-12-20T12:45:05;99646.25;;;6.27;76.86
19624;BME280;9959;49.798;9.928;2023-12-20T12:47:32;99639.13;;;6.34;75.98
19624;BME280;9959;49.798;9.928;2023-12-20T12:49:59;99658.63;;;6.28;76.21
19624;BME280;9959;49.798;9.928;2023-12-20T12:52:27;99653.72;;;6.17;76.49
19624;BME280;9959;49.798;9.928;2023-12-20T12:54:57;99652.13;;;6.08;76.99
19624;BME280;9959;49.798;9.928;2023-12-20T12:57:24;99652.53;;;6.20;77.42
19624;BME280;9959;49.798;9.928;2023-12-20T12:59:53;99641.91;;;6.11;77.21
19624;BME280;9959;49.798;9.928;2023-12-20T13:02:20;99642.09;;;6.10;78.42
19624;BME280;9959;49.798;9.928;2023-12-20T13:04:47;99646.06;;;6.14;78.13
19624;BME280;9959;49.798;9.928;2023-12-20T13:07:14;99643.44;;;6.06;78.21
19624;BME280;9959;49.798;9.928;2023-12-20T13:09:44;99646.22;;;5.98;78.99
19624;BME280;9959;49.798;9.928;2023-12-20T13:12:11;99643.38;;;5.99;78.38
19624;BME280;9959;49.798;9.928;2023-12-20T13:14:38;99648.06;;;5.97;78.38
19624;BME280;9959;49.798;9.928;2023-12-20T13:17:06;99650.97;;;5.88;79.51
19624;BME280;9959;49.798;9.928;2023-12-20T13:19:34;99639.97;;;5.83;79.79
19624;BME280;9959;49.798;9.928;2023-12-20T13:22:01;99626.25;;;5.86;79.44
19624;BME280;9959;49.798;9.928;2023-12-20T13:24:28;99636.28;;;5.84;80.24